sim
Sign-in with your pilot id or email,
or register
Callsign
Passwort

Schedule Details

Flight Number: OEO2654
Departure: Nuremberg Airport (EDDN) at 06:50
Arrival: Fuerteventura Airport (GCFV) at 11:40

Weather Information
Getting current METAR information for EDDN 172320Z 14004KT 100V190 9999 BKN040 17/15 Q1013
Getting current METAR information for GCFV 172330Z AUTO 02009KT 9999 NCD 23/20 Q1014

Schedule Frequency

Route Map